Terminal Aerodrome Forecast
Issued by NWS

Home | Current Version | Previous Version | Text Only | Print | Product List | Glossary On
Versions: 1 2 3 4 5 6 7 8 9 10 11 12 13
988
FTUS46 KMTR 191733
TAFSJC
TAF
KSJC 191733Z 1918/2018 14010KT P6SM -SHRA BKN050 BKN090
     FM192100 22008KT P6SM SCT050 BKN100
     FM200200 18006KT P6SM SCT050 BKN100
     FM200700 13017G32KT P6SM -RA BKN015 OVC040
     FM201000 14025G38KT 6SM -RA OVC015
     FM201600 15023G30KT 6SM -RA OVC015=

USA.gov is the U.S. government's official web portal to all federal, state and local government web resources and services.